sensor_id;sensor_type;location;lat;lon;timestamp;temperature;humidity
3208;DHT22;1616;52.394;9.756;2022-11-14T00:02:03;7.50;1.00
3208;DHT22;1616;52.394;9.756;2022-11-14T00:04:29;7.50;1.00
3208;DHT22;1616;52.394;9.756;2022-11-14T00:06:55;7.50;1.00
3208;DHT22;1616;52.394;9.756;2022-11-14T00:09:24;7.50;1.00
3208;DHT22;1616;52.394;9.756;2022-11-14T00:11:50;7.50;1.00
3208;DHT22;1616;52.394;9.756;2022-11-14T00:14:16;7.60;1.00
3208;DHT22;1616;52.394;9.756;2022-11-14T00:16:41;7.60;1.00
3208;DHT22;1616;52.394;9.756;2022-11-14T00:19:07;7.60;1.00
3208;DHT22;1616;52.394;9.756;2022-11-14T00:21:33;7.60;1.00
3208;DHT22;1616;52.394;9.756;2022-11-14T00:23:59;7.60;1.00
3208;DHT22;1616;52.394;9.756;2022-11-14T00:26:26;7.60;1.00
3208;DHT22;1616;52.394;9.756;2022-11-14T00:28:53;7.50;1.00
3208;DHT22;1616;52.394;9.756;2022-11-14T00:31:19;7.60;1.00
3208;DHT22;1616;52.394;9.756;2022-11-14T00:33:45;7.60;1.00
3208;DHT22;1616;52.394;9.756;2022-11-14T00:36:11;7.50;1.00
3208;DHT22;1616;52.394;9.756;2022-11-14T00:38:36;7.50;1.00
3208;DHT22;1616;52.394;9.756;2022-11-14T00:41:02;7.50;1.00
3208;DHT22;1616;52.394;9.756;2022-11-14T00:43:28;7.50;1.00
3208;DHT22;1616;52.394;9.756;2022-11-14T00:45:54;7.50;1.00
3208;DHT22;1616;52.394;9.756;2022-11-14T00:48:19;7.50;1.00
3208;DHT22;1616;52.394;9.756;2022-11-14T00:50:45;7.50;1.00
3208;DHT22;1616;52.394;9.756;2022-11-14T00:53:12;7.50;1.00
3208;DHT22;1616;52.394;9.756;2022-11-14T00:55:38;7.50;1.00
3208;DHT22;1616;52.394;9.756;2022-11-14T00:58:03;7.50;1.00
3208;DHT22;1616;52.394;9.756;2022-11-14T01:00:29;7.40;1.00
3208;DHT22;1616;52.394;9.756;2022-11-14T01:02:55;7.40;1.00
3208;DHT22;1616;52.394;9.756;2022-11-14T01:05:26;7.40;1.00
3208;DHT22;1616;52.394;9.756;2022-11-14T01:07:52;7.40;1.00
3208;DHT22;1616;52.394;9.756;2022-11-14T01:10:18;7.40;1.00
3208;DHT22;1616;52.394;9.756;2022-11-14T01:12:45;7.40;1.00
3208;DHT22;1616;52.394;9.756;2022-11-14T01:15:11;7.40;1.00
3208;DHT22;1616;52.394;9.756;2022-11-14T01:17:37;7.40;1.00
3208;DHT22;1616;52.394;9.756;2022-11-14T01:20:04;7.40;1.00
3208;DHT22;1616;52.394;9.756;2022-11-14T01:22:30;7.40;1.00
3208;DHT22;1616;52.394;9.756;2022-11-14T01:24:55;7.40;1.00
3208;DHT22;1616;52.394;9.756;2022-11-14T01:27:24;7.40;1.00
3208;DHT22;1616;52.394;9.756;2022-11-14T01:29:50;7.40;1.00
3208;DHT22;1616;52.394;9.756;2022-11-14T01:32:16;7.30;1.00
3208;DHT22;1616;52.394;9.756;2022-11-14T01:34:42;7.30;1.00
3208;DHT22;1616;52.394;9.756;2022-11-14T01:37:08;7.30;1.00
3208;DHT22;1616;52.394;9.756;2022-11-14T01:39:33;7.20;1.00
3208;DHT22;1616;52.394;9.756;2022-11-14T01:41:59;7.20;1.00
3208;DHT22;1616;52.394;9.756;2022-11-14T01:44:45;7.20;1.00
3208;DHT22;1616;52.394;9.756;2022-11-14T01:47:16;7.20;1.00
3208;DHT22;1616;52.394;9.756;2022-11-14T01:49:46;7.10;1.00
3208;DHT22;1616;52.394;9.756;2022-11-14T01:52:22;7.10;1.00
3208;DHT22;1616;52.394;9.756;2022-11-14T01:54:52;7.10;1.00
3208;DHT22;1616;52.394;9.756;2022-11-14T01:57:26;7.00;1.00
3208;DHT22;1616;52.394;9.756;2022-11-14T01:59:54;7.00;1.00
3208;DHT22;1616;52.394;9.756;2022-11-14T02:02:24;7.00;1.00
3208;DHT22;1616;52.394;9.756;2022-11-14T02:05:11;7.00;1.00
3208;DHT22;1616;52.394;9.756;2022-11-14T02:07:39;6.90;1.00
3208;DHT22;1616;52.394;9.756;2022-11-14T02:10:10;6.90;1.00
3208;DHT22;1616;52.394;9.756;2022-11-14T02:12:39;6.90;1.00
3208;DHT22;1616;52.394;9.756;2022-11-14T02:15:06;6.90;1.00
3208;DHT22;1616;52.394;9.756;2022-11-14T02:17:32;6.80;1.00
3208;DHT22;1616;52.394;9.756;2022-11-14T02:22:36;6.80;1.00
3208;DHT22;1616;52.394;9.756;2022-11-14T02:25:02;6.80;1.00
3208;DHT22;1616;52.394;9.756;2022-11-14T02:27:29;6.80;1.00
3208;DHT22;1616;52.394;9.756;2022-11-14T02:30:03;6.80;1.00
3208;DHT22;1616;52.394;9.756;2022-11-14T02:32:29;6.70;1.00
3208;DHT22;1616;52.394;9.756;2022-11-14T02:34:55;6.70;1.00
3208;DHT22;1616;52.394;9.756;2022-11-14T02:37:20;6.70;1.00
3208;DHT22;1616;52.394;9.756;2022-11-14T02:39:46;6.80;1.00
3208;DHT22;1616;52.394;9.756;2022-11-14T02:42:12;6.80;1.00
3208;DHT22;1616;52.394;9.756;2022-11-14T02:44:38;6.80;1.00
3208;DHT22;1616;52.394;9.756;2022-11-14T02:47:04;6.80;1.00
3208;DHT22;1616;52.394;9.756;2022-11-14T02:49:30;6.80;1.00
3208;DHT22;1616;52.394;9.756;2022-11-14T02:51:56;6.80;1.00
3208;DHT22;1616;52.394;9.756;2022-11-14T02:54:22;6.80;1.00
3208;DHT22;1616;52.394;9.756;2022-11-14T02:56:47;6.80;1.00
3208;DHT22;1616;52.394;9.756;2022-11-14T02:59:13;6.80;1.00
3208;DHT22;1616;52.394;9.756;2022-11-14T03:01:39;6.80;1.00
3208;DHT22;1616;52.394;9.756;2022-11-14T03:04:05;6.80;1.00
3208;DHT22;1616;52.394;9.756;2022-11-14T03:06:30;6.80;1.00
3208;DHT22;1616;52.394;9.756;2022-11-14T03:08:56;6.80;1.00
3208;DHT22;1616;52.394;9.756;2022-11-14T03:11:22;6.80;1.00
3208;DHT22;1616;52.394;9.756;2022-11-14T03:13:47;6.80;1.00
3208;DHT22;1616;52.394;9.756;2022-11-14T03:16:13;6.80;1.00
3208;DHT22;1616;52.394;9.756;2022-11-14T03:18:39;6.80;1.00
3208;DHT22;1616;52.394;9.756;2022-11-14T03:21:11;6.80;1.00
3208;DHT22;1616;52.394;9.756;2022-11-14T03:23:37;6.80;1.00
3208;DHT22;1616;52.394;9.756;2022-11-14T03:26:05;6.80;1.00
3208;DHT22;1616;52.394;9.756;2022-11-14T03:28:31;6.80;1.00
3208;DHT22;1616;52.394;9.756;2022-11-14T03:30:57;6.80;1.00
3208;DHT22;1616;52.394;9.756;2022-11-14T03:33:23;6.80;1.00
3208;DHT22;1616;52.394;9.756;2022-11-14T03:35:50;6.80;1.00
3208;DHT22;1616;52.394;9.756;2022-11-14T03:38:17;6.80;1.00
3208;DHT22;1616;52.394;9.756;2022-11-14T03:40:43;6.80;1.00
3208;DHT22;1616;52.394;9.756;2022-11-14T03:43:09;6.80;1.00
3208;DHT22;1616;52.394;9.756;2022-11-14T03:45:37;6.80;1.00
3208;DHT22;1616;52.394;9.756;2022-11-14T03:48:04;6.80;1.00
3208;DHT22;1616;52.394;9.756;2022-11-14T03:50:30;6.80;1.00
3208;DHT22;1616;52.394;9.756;2022-11-14T03:52:56;6.90;1.00
3208;DHT22;1616;52.394;9.756;2022-11-14T03:55:23;6.90;1.00
3208;DHT22;1616;52.394;9.756;2022-11-14T03:57:49;6.90;1.00
3208;DHT22;1616;52.394;9.756;2022-11-14T04:00:15;6.90;1.00
3208;DHT22;1616;52.394;9.756;2022-11-14T04:02:41;6.90;1.00
3208;DHT22;1616;52.394;9.756;2022-11-14T04:05:07;6.90;1.00
3208;DHT22;1616;52.394;9.756;2022-11-14T04:07:33;6.90;1.00
3208;DHT22;1616;52.394;9.756;2022-11-14T04:09:59;6.90;1.00
3208;DHT22;1616;52.394;9.756;2022-11-14T04:12:25;6.90;1.00
3208;DHT22;1616;52.394;9.756;2022-11-14T04:14:50;6.90;1.00
3208;DHT22;1616;52.394;9.756;2022-11-14T04:17:17;6.90;1.00
3208;DHT22;1616;52.394;9.756;2022-11-14T04:19:43;6.90;1.00
3208;DHT22;1616;52.394;9.756;2022-11-14T04:22:09;6.90;1.00
3208;DHT22;1616;52.394;9.756;2022-11-14T04:24:34;6.80;1.00
3208;DHT22;1616;52.394;9.756;2022-11-14T04:27:00;6.80;1.00
3208;DHT22;1616;52.394;9.756;2022-11-14T04:29:25;6.80;1.00
3208;DHT22;1616;52.394;9.756;2022-11-14T04:31:51;6.80;1.00
3208;DHT22;1616;52.394;9.756;2022-11-14T04:34:17;6.80;1.00
3208;DHT22;1616;52.394;9.756;2022-11-14T04:36:42;6.80;1.00
3208;DHT22;1616;52.394;9.756;2022-11-14T04:39:08;6.80;1.00
3208;DHT22;1616;52.394;9.756;2022-11-14T04:41:34;6.80;1.00
3208;DHT22;1616;52.394;9.756;2022-11-14T04:44:00;6.80;1.00
3208;DHT22;1616;52.394;9.756;2022-11-14T04:46:25;6.80;1.00
3208;DHT22;1616;52.394;9.756;2022-11-14T04:48:51;6.80;1.00
3208;DHT22;1616;52.394;9.756;2022-11-14T04:51:17;6.80;1.00
3208;DHT22;1616;52.394;9.756;2022-11-14T04:53:43;6.80;1.00
3208;DHT22;1616;52.394;9.756;2022-11-14T04:56:08;6.80;1.00
3208;DHT22;1616;52.394;9.756;2022-11-14T04:58:34;6.80;1.00
3208;DHT22;1616;52.394;9.756;2022-11-14T05:01:10;6.80;1.00
3208;DHT22;1616;52.394;9.756;2022-11-14T05:03:36;6.80;1.00
3208;DHT22;1616;52.394;9.756;2022-11-14T05:06:02;6.80;1.00
3208;DHT22;1616;52.394;9.756;2022-11-14T05:08:28;6.80;1.00
3208;DHT22;1616;52.394;9.756;2022-11-14T05:10:54;6.80;1.00
3208;DHT22;1616;52.394;9.756;2022-11-14T05:13:20;6.80;1.00
3208;DHT22;1616;52.394;9.756;2022-11-14T05:15:45;6.80;1.00
3208;DHT22;1616;52.394;9.756;2022-11-14T05:18:11;6.80;1.00
3208;DHT22;1616;52.394;9.756;2022-11-14T05:20:37;6.90;1.00
3208;DHT22;1616;52.394;9.756;2022-11-14T05:23:03;6.90;1.00
3208;DHT22;1616;52.394;9.756;2022-11-14T05:25:29;6.90;1.00
3208;DHT22;1616;52.394;9.756;2022-11-14T05:27:55;6.90;1.00
3208;DHT22;1616;52.394;9.756;2022-11-14T05:30:21;6.90;1.00
3208;DHT22;1616;52.394;9.756;2022-11-14T05:32:46;6.90;1.00
3208;DHT22;1616;52.394;9.756;2022-11-14T05:35:12;7.00;1.00
3208;DHT22;1616;52.394;9.756;2022-11-14T05:37:38;7.00;1.00
3208;DHT22;1616;52.394;9.756;2022-11-14T05:40:05;6.90;1.00
3208;DHT22;1616;52.394;9.756;2022-11-14T05:42:31;6.90;1.00
3208;DHT22;1616;52.394;9.756;2022-11-14T05:44:56;6.90;1.00
3208;DHT22;1616;52.394;9.756;2022-11-14T05:47:22;6.90;1.00
3208;DHT22;1616;52.394;9.756;2022-11-14T05:49:47;6.90;1.00
3208;DHT22;1616;52.394;9.756;2022-11-14T05:52:14;6.90;1.00
3208;DHT22;1616;52.394;9.756;2022-11-14T05:54:40;6.80;1.00
3208;DHT22;1616;52.394;9.756;2022-11-14T05:57:05;6.80;1.00
3208;DHT22;1616;52.394;9.756;2022-11-14T05:59:31;6.80;1.00
3208;DHT22;1616;52.394;9.756;2022-11-14T06:01:56;6.80;1.00
3208;DHT22;1616;52.394;9.756;2022-11-14T06:04:22;6.80;1.00
3208;DHT22;1616;52.394;9.756;2022-11-14T06:06:48;6.80;1.00
3208;DHT22;1616;52.394;9.756;2022-11-14T06:09:14;6.80;1.00
3208;DHT22;1616;52.394;9.756;2022-11-14T06:11:39;6.80;1.00
3208;DHT22;1616;52.394;9.756;2022-11-14T06:14:05;6.80;1.00
3208;DHT22;1616;52.394;9.756;2022-11-14T06:16:31;6.80;1.00
3208;DHT22;1616;52.394;9.756;2022-11-14T06:18:57;6.80;1.00
3208;DHT22;1616;52.394;9.756;2022-11-14T06:21:24;6.70;1.00
3208;DHT22;1616;52.394;9.756;2022-11-14T06:23:50;6.70;1.00
3208;DHT22;1616;52.394;9.756;2022-11-14T06:26:27;6.70;1.00
3208;DHT22;1616;52.394;9.756;2022-11-14T06:28:56;6.70;1.00
3208;DHT22;1616;52.394;9.756;2022-11-14T06:31:23;6.70;1.00
3208;DHT22;1616;52.394;9.756;2022-11-14T06:33:49;6.70;1.00
3208;DHT22;1616;52.394;9.756;2022-11-14T06:36:15;6.70;1.00
3208;DHT22;1616;52.394;9.756;2022-11-14T06:38:41;6.70;1.00
3208;DHT22;1616;52.394;9.756;2022-11-14T06:41:16;6.70;1.00
3208;DHT22;1616;52.394;9.756;2022-11-14T06:43:44;6.70;1.00
3208;DHT22;1616;52.394;9.756;2022-11-14T06:46:12;6.70;1.00
3208;DHT22;1616;52.394;9.756;2022-11-14T06:48:39;6.70;1.00
3208;DHT22;1616;52.394;9.756;2022-11-14T06:51:05;6.70;1.00
3208;DHT22;1616;52.394;9.756;2022-11-14T06:53:32;6.70;1.00
3208;DHT22;1616;52.394;9.756;2022-11-14T06:56:07;6.70;1.00
3208;DHT22;1616;52.394;9.756;2022-11-14T06:58:35;6.70;1.00
3208;DHT22;1616;52.394;9.756;2022-11-14T07:03:33;6.70;1.00
3208;DHT22;1616;52.394;9.756;2022-11-14T07:06:00;6.70;1.00
3208;DHT22;1616;52.394;9.756;2022-11-14T07:08:26;6.70;1.00
3208;DHT22;1616;52.394;9.756;2022-11-14T07:10:52;6.70;1.00
3208;DHT22;1616;52.394;9.756;2022-11-14T07:13:18;6.70;1.00
3208;DHT22;1616;52.394;9.756;2022-11-14T07:15:51;6.70;1.00
3208;DHT22;1616;52.394;9.756;2022-11-14T07:18:17;6.70;1.00
3208;DHT22;1616;52.394;9.756;2022-11-14T07:20:43;6.70;1.00
3208;DHT22;1616;52.394;9.756;2022-11-14T07:23:08;6.70;1.00
3208;DHT22;1616;52.394;9.756;2022-11-14T07:25:34;6.70;1.00
3208;DHT22;1616;52.394;9.756;2022-11-14T07:27:59;6.80;1.00
3208;DHT22;1616;52.394;9.756;2022-11-14T07:30:25;6.80;1.00
3208;DHT22;1616;52.394;9.756;2022-11-14T07:32:55;6.80;1.00
3208;DHT22;1616;52.394;9.756;2022-11-14T07:35:21;6.80;1.00
3208;DHT22;1616;52.394;9.756;2022-11-14T07:37:47;6.80;1.00
3208;DHT22;1616;52.394;9.756;2022-11-14T07:40:14;6.80;1.00
3208;DHT22;1616;52.394;9.756;2022-11-14T07:42:40;6.80;1.00
3208;DHT22;1616;52.394;9.756;2022-11-14T07:45:06;6.80;1.00
3208;DHT22;1616;52.394;9.756;2022-11-14T07:47:32;6.90;1.00
3208;DHT22;1616;52.394;9.756;2022-11-14T07:49:57;6.90;1.00
3208;DHT22;1616;52.394;9.756;2022-11-14T07:52:23;6.90;1.00
3208;DHT22;1616;52.394;9.756;2022-11-14T07:54:48;6.90;1.00
3208;DHT22;1616;52.394;9.756;2022-11-14T07:57:14;6.90;1.00
3208;DHT22;1616;52.394;9.756;2022-11-14T07:59:40;6.90;1.00
3208;DHT22;1616;52.394;9.756;2022-11-14T08:02:10;6.90;1.00
3208;DHT22;1616;52.394;9.756;2022-11-14T08:04:36;6.90;1.00
3208;DHT22;1616;52.394;9.756;2022-11-14T08:07:02;6.90;1.00
3208;DHT22;1616;52.394;9.756;2022-11-14T08:09:27;6.90;1.00
3208;DHT22;1616;52.394;9.756;2022-11-14T08:11:53;6.90;1.00
3208;DHT22;1616;52.394;9.756;2022-11-14T08:14:18;6.90;1.00
3208;DHT22;1616;52.394;9.756;2022-11-14T08:16:44;6.90;1.00
3208;DHT22;1616;52.394;9.756;2022-11-14T08:19:09;6.90;1.00
3208;DHT22;1616;52.394;9.756;2022-11-14T08:21:35;6.90;1.00
3208;DHT22;1616;52.394;9.756;2022-11-14T08:24:01;7.00;1.00
3208;DHT22;1616;52.394;9.756;2022-11-14T08:26:27;7.00;1.00
3208;DHT22;1616;52.394;9.756;2022-11-14T08:28:53;7.00;1.00
3208;DHT22;1616;52.394;9.756;2022-11-14T08:31:19;7.00;1.00
3208;DHT22;1616;52.394;9.756;2022-11-14T08:33:45;7.00;1.00
3208;DHT22;1616;52.394;9.756;2022-11-14T08:36:11;7.10;1.00
3208;DHT22;1616;52.394;9.756;2022-11-14T08:38:37;7.10;1.00
3208;DHT22;1616;52.394;9.756;2022-11-14T08:41:03;7.10;1.00
3208;DHT22;1616;52.394;9.756;2022-11-14T08:43:30;7.20;1.00
3208;DHT22;1616;52.394;9.756;2022-11-14T08:46:00;7.20;1.00
3208;DHT22;1616;52.394;9.756;2022-11-14T08:48:26;7.20;1.00
3208;DHT22;1616;52.394;9.756;2022-11-14T08:50:51;7.20;1.00
3208;DHT22;1616;52.394;9.756;2022-11-14T08:53:17;7.20;1.00
3208;DHT22;1616;52.394;9.756;2022-11-14T08:55:47;7.20;1.00
3208;DHT22;1616;52.394;9.756;2022-11-14T08:58:13;7.20;1.00
3208;DHT22;1616;52.394;9.756;2022-11-14T09:00:39;7.20;1.00
3208;DHT22;1616;52.394;9.756;2022-11-14T09:03:08;7.20;1.00
3208;DHT22;1616;52.394;9.756;2022-11-14T09:05:35;7.30;1.00
3208;DHT22;1616;52.394;9.756;2022-11-14T09:08:02;7.30;1.00
3208;DHT22;1616;52.394;9.756;2022-11-14T09:10:28;7.30;1.00
3208;DHT22;1616;52.394;9.756;2022-11-14T09:12:57;7.30;1.00
3208;DHT22;1616;52.394;9.756;2022-11-14T09:15:23;7.40;1.00
3208;DHT22;1616;52.394;9.756;2022-11-14T09:17:53;7.40;1.00
3208;DHT22;1616;52.394;9.756;2022-11-14T09:20:19;7.40;1.00
3208;DHT22;1616;52.394;9.756;2022-11-14T09:22:45;7.30;1.00
3208;DHT22;1616;52.394;9.756;2022-11-14T09:25:11;7.30;1.00
3208;DHT22;1616;52.394;9.756;2022-11-14T09:27:37;7.30;1.00
3208;DHT22;1616;52.394;9.756;2022-11-14T09:30:04;7.40;1.00
3208;DHT22;1616;52.394;9.756;2022-11-14T09:32:30;7.40;1.00
3208;DHT22;1616;52.394;9.756;2022-11-14T09:34:55;7.40;1.00
3208;DHT22;1616;52.394;9.756;2022-11-14T09:37:21;7.40;1.00
3208;DHT22;1616;52.394;9.756;2022-11-14T09:39:47;7.40;1.00
3208;DHT22;1616;52.394;9.756;2022-11-14T09:42:52;7.40;1.00
3208;DHT22;1616;52.394;9.756;2022-11-14T09:45:19;7.50;1.00
3208;DHT22;1616;52.394;9.756;2022-11-14T09:47:51;7.50;1.00
3208;DHT22;1616;52.394;9.756;2022-11-14T09:50:23;7.50;1.00
3208;DHT22;1616;52.394;9.756;2022-11-14T09:53:00;7.50;1.00
3208;DHT22;1616;52.394;9.756;2022-11-14T09:55:32;7.50;1.00
3208;DHT22;1616;52.394;9.756;2022-11-14T09:58:00;7.60;1.00
3208;DHT22;1616;52.394;9.756;2022-11-14T10:03:32;7.60;1.00
3208;DHT22;1616;52.394;9.756;2022-11-14T10:06:24;7.60;1.00
3208;DHT22;1616;52.394;9.756;2022-11-14T10:11:37;7.60;1.00
3208;DHT22;1616;52.394;9.756;2022-11-14T10:19:42;7.60;1.00
3208;DHT22;1616;52.394;9.756;2022-11-14T10:25:27;7.70;1.00
3208;DHT22;1616;52.394;9.756;2022-11-14T10:31:01;7.90;1.00
3208;DHT22;1616;52.394;9.756;2022-11-14T10:33:55;7.90;1.00
3208;DHT22;1616;52.394;9.756;2022-11-14T10:39:25;8.00;1.00
3208;DHT22;1616;52.394;9.756;2022-11-14T10:41:56;8.20;1.00
3208;DHT22;1616;52.394;9.756;2022-11-14T10:44:35;8.10;1.00
3208;DHT22;1616;52.394;9.756;2022-11-14T10:47:04;8.10;1.00
3208;DHT22;1616;52.394;9.756;2022-11-14T10:49:33;8.20;1.00
3208;DHT22;1616;52.394;9.756;2022-11-14T10:52:05;8.30;1.00
3208;DHT22;1616;52.394;9.756;2022-11-14T10:54:45;8.50;1.00
3208;DHT22;1616;52.394;9.756;2022-11-14T10:57:17;8.70;1.00
3208;DHT22;1616;52.394;9.756;2022-11-14T10:59:43;8.80;1.00
3208;DHT22;1616;52.394;9.756;2022-11-14T11:02:09;8.80;1.00
3208;DHT22;1616;52.394;9.756;2022-11-14T11:04:41;8.80;1.00
3208;DHT22;1616;52.394;9.756;2022-11-14T11:09:34;8.90;1.00
3208;DHT22;1616;52.394;9.756;2022-11-14T11:12:42;8.80;1.00
3208;DHT22;1616;52.394;9.756;2022-11-14T11:18:02;8.90;1.00
3208;DHT22;1616;52.394;9.756;2022-11-14T11:20:32;8.90;1.00
3208;DHT22;1616;52.394;9.756;2022-11-14T11:25:38;8.90;1.00
3208;DHT22;1616;52.394;9.756;2022-11-14T11:28:16;8.90;1.00
3208;DHT22;1616;52.394;9.756;2022-11-14T11:31:04;9.00;1.00
3208;DHT22;1616;52.394;9.756;2022-11-14T11:33:32;9.00;1.00
3208;DHT22;1616;52.394;9.756;2022-11-14T11:36:24;9.20;1.00
3208;DHT22;1616;52.394;9.756;2022-11-14T11:38:52;9.20;1.00
3208;DHT22;1616;52.394;9.756;2022-11-14T11:41:27;9.30;1.00
3208;DHT22;1616;52.394;9.756;2022-11-14T11:44:04;9.30;1.00
3208;DHT22;1616;52.394;9.756;2022-11-14T11:46:44;9.50;1.00
3208;DHT22;1616;52.394;9.756;2022-11-14T11:49:21;9.90;1.00
3208;DHT22;1616;52.394;9.756;2022-11-14T11:51:52;10.50;1.00
3208;DHT22;1616;52.394;9.756;2022-11-14T11:54:23;11.10;1.00
3208;DHT22;1616;52.394;9.756;2022-11-14T11:56:54;11.70;1.00
3208;DHT22;1616;52.394;9.756;2022-11-14T11:59:36;12.30;1.00
3208;DHT22;1616;52.394;9.756;2022-11-14T12:02:25;12.80;1.00
3208;DHT22;1616;52.394;9.756;2022-11-14T12:04:53;13.20;1.00
3208;DHT22;1616;52.394;9.756;2022-11-14T12:10:00;14.00;1.00
3208;DHT22;1616;52.394;9.756;2022-11-14T12:12:43;14.30;1.00
3208;DHT22;1616;52.394;9.756;2022-11-14T12:21:02;14.80;1.00
3208;DHT22;1616;52.394;9.756;2022-11-14T12:24:00;14.80;1.00
3208;DHT22;1616;52.394;9.756;2022-11-14T12:26:41;14.70;1.00
3208;DHT22;1616;52.394;9.756;2022-11-14T12:29:27;14.40;1.00
3208;DHT22;1616;52.394;9.756;2022-11-14T12:32:03;14.20;1.00
3208;DHT22;1616;52.394;9.756;2022-11-14T12:34:39;14.00;1.00
3208;DHT22;1616;52.394;9.756;2022-11-14T12:37:25;13.70;1.00
3208;DHT22;1616;52.394;9.756;2022-11-14T12:40:02;13.30;1.00
3208;DHT22;1616;52.394;9.756;2022-11-14T12:42:29;12.80;1.00
3208;DHT22;1616;52.394;9.756;2022-11-14T12:44:56;12.30;1.00
3208;DHT22;1616;52.394;9.756;2022-11-14T12:47:24;11.80;1.00
3208;DHT22;1616;52.394;9.756;2022-11-14T13:00:15;10.30;1.00
3208;DHT22;1616;52.394;9.756;2022-11-14T13:14:16;9.70;1.00
3208;DHT22;1616;52.394;9.756;2022-11-14T13:20:26;9.50;1.00
3208;DHT22;1616;52.394;9.756;2022-11-14T13:33:45;9.20;1.00
3208;DHT22;1616;52.394;9.756;2022-11-14T13:36:34;9.20;1.00
3208;DHT22;1616;52.394;9.756;2022-11-14T13:41:58;9.20;1.00
3208;DHT22;1616;52.394;9.756;2022-11-14T13:44:53;9.10;1.00
3208;DHT22;1616;52.394;9.756;2022-11-14T13:52:34;9.10;1.00
3208;DHT22;1616;52.394;9.756;2022-11-14T13:55:05;9.10;1.00
3208;DHT22;1616;52.394;9.756;2022-11-14T14:00:16;9.00;1.00
3208;DHT22;1616;52.394;9.756;2022-11-14T14:02:53;9.10;1.00
3208;DHT22;1616;52.394;9.756;2022-11-14T14:05:55;9.10;1.00
3208;DHT22;1616;52.394;9.756;2022-11-14T14:11:54;9.10;1.00
3208;DHT22;1616;52.394;9.756;2022-11-14T14:15:00;9.10;1.00
3208;DHT22;1616;52.394;9.756;2022-11-14T14:17:48;9.10;1.00
3208;DHT22;1616;52.394;9.756;2022-11-14T14:20:53;9.10;1.00
3208;DHT22;1616;52.394;9.756;2022-11-14T14:23:26;9.10;1.00
3208;DHT22;1616;52.394;9.756;2022-11-14T14:28:36;9.10;1.00
3208;DHT22;1616;52.394;9.756;2022-11-14T14:31:24;9.10;1.00
3208;DHT22;1616;52.394;9.756;2022-11-14T14:33:55;9.10;1.00
3208;DHT22;1616;52.394;9.756;2022-11-14T14:36:27;9.10;1.00
3208;DHT22;1616;52.394;9.756;2022-11-14T14:39:16;9.10;1.00
3208;DHT22;1616;52.394;9.756;2022-11-14T14:41:43;9.00;1.00
3208;DHT22;1616;52.394;9.756;2022-11-14T14:44:35;9.00;1.00
3208;DHT22;1616;52.394;9.756;2022-11-14T14:47:16;9.00;1.00
3208;DHT22;1616;52.394;9.756;2022-11-14T14:49:43;9.00;1.00
3208;DHT22;1616;52.394;9.756;2022-11-14T14:52:33;9.00;1.00
3208;DHT22;1616;52.394;9.756;2022-11-14T14:55:00;8.90;1.00
3208;DHT22;1616;52.394;9.756;2022-11-14T14:57:28;8.90;1.00
3208;DHT22;1616;52.394;9.756;2022-11-14T15:00:03;8.80;1.00
3208;DHT22;1616;52.394;9.756;2022-11-14T15:02:29;8.80;1.00
3208;DHT22;1616;52.394;9.756;2022-11-14T15:04:56;8.80;1.00
3208;DHT22;1616;52.394;9.756;2022-11-14T15:07:26;8.70;1.00
3208;DHT22;1616;52.394;9.756;2022-11-14T15:09:55;8.70;1.00
3208;DHT22;1616;52.394;9.756;2022-11-14T15:12:23;8.70;1.00
3208;DHT22;1616;52.394;9.756;2022-11-14T15:14:52;8.60;1.00
3208;DHT22;1616;52.394;9.756;2022-11-14T15:17:18;8.60;1.00
3208;DHT22;1616;52.394;9.756;2022-11-14T15:19:45;8.60;1.00
3208;DHT22;1616;52.394;9.756;2022-11-14T15:24:40;8.40;1.00
3208;DHT22;1616;52.394;9.756;2022-11-14T15:27:18;8.50;1.00
3208;DHT22;1616;52.394;9.756;2022-11-14T15:29:50;8.50;1.00
3208;DHT22;1616;52.394;9.756;2022-11-14T15:32:24;8.40;1.00
3208;DHT22;1616;52.394;9.756;2022-11-14T15:35:23;8.40;1.00
3208;DHT22;1616;52.394;9.756;2022-11-14T15:40:38;8.40;1.00
3208;DHT22;1616;52.394;9.756;2022-11-14T15:48:53;8.30;1.00
3208;DHT22;1616;52.394;9.756;2022-11-14T15:51:51;8.30;1.00
3208;DHT22;1616;52.394;9.756;2022-11-14T15:54:29;8.20;1.00
3208;DHT22;1616;52.394;9.756;2022-11-14T15:56:57;8.20;1.00
3208;DHT22;1616;52.394;9.756;2022-11-14T15:59:24;8.20;1.00
3208;DHT22;1616;52.394;9.756;2022-11-14T16:01:53;8.20;1.00
3208;DHT22;1616;52.394;9.756;2022-11-14T16:04:23;8.10;1.00
3208;DHT22;1616;52.394;9.756;2022-11-14T16:06:50;8.10;1.00
3208;DHT22;1616;52.394;9.756;2022-11-14T16:09:18;8.10;1.00
3208;DHT22;1616;52.394;9.756;2022-11-14T16:11:44;8.10;1.00
3208;DHT22;1616;52.394;9.756;2022-11-14T16:14:10;8.10;1.00
3208;DHT22;1616;52.394;9.756;2022-11-14T16:16:36;8.10;1.00
3208;DHT22;1616;52.394;9.756;2022-11-14T16:19:03;8.00;1.00
3208;DHT22;1616;52.394;9.756;2022-11-14T16:21:29;8.00;1.00
3208;DHT22;1616;52.394;9.756;2022-11-14T16:23:56;8.00;1.00
3208;DHT22;1616;52.394;9.756;2022-11-14T16:26:22;8.00;1.00
3208;DHT22;1616;52.394;9.756;2022-11-14T16:28:50;7.90;1.00
3208;DHT22;1616;52.394;9.756;2022-11-14T16:31:16;7.90;1.00
3208;DHT22;1616;52.394;9.756;2022-11-14T16:33:42;7.90;1.00
3208;DHT22;1616;52.394;9.756;2022-11-14T16:36:11;7.80;1.00
3208;DHT22;1616;52.394;9.756;2022-11-14T16:38:37;7.80;1.00
3208;DHT22;1616;52.394;9.756;2022-11-14T16:41:10;7.70;1.00
3208;DHT22;1616;52.394;9.756;2022-11-14T16:43:37;7.70;1.00
3208;DHT22;1616;52.394;9.756;2022-11-14T16:46:06;7.70;1.00
3208;DHT22;1616;52.394;9.756;2022-11-14T16:48:32;7.70;1.00
3208;DHT22;1616;52.394;9.756;2022-11-14T16:51:02;7.70;1.00
3208;DHT22;1616;52.394;9.756;2022-11-14T16:53:28;7.60;1.00
3208;DHT22;1616;52.394;9.756;2022-11-14T16:55:55;7.60;1.00
3208;DHT22;1616;52.394;9.756;2022-11-14T16:58:21;7.60;1.00
3208;DHT22;1616;52.394;9.756;2022-11-14T17:00:47;7.60;1.00
3208;DHT22;1616;52.394;9.756;2022-11-14T17:03:13;7.60;1.00
3208;DHT22;1616;52.394;9.756;2022-11-14T17:05:47;7.60;1.00
3208;DHT22;1616;52.394;9.756;2022-11-14T17:08:13;7.50;1.00
3208;DHT22;1616;52.394;9.756;2022-11-14T17:10:43;7.50;1.00
3208;DHT22;1616;52.394;9.756;2022-11-14T17:13:10;7.50;1.00
3208;DHT22;1616;52.394;9.756;2022-11-14T17:15:36;7.50;1.00
3208;DHT22;1616;52.394;9.756;2022-11-14T17:18:03;7.50;1.00
3208;DHT22;1616;52.394;9.756;2022-11-14T17:20:29;7.50;1.00
3208;DHT22;1616;52.394;9.756;2022-11-14T17:22:54;7.50;1.00
3208;DHT22;1616;52.394;9.756;2022-11-14T17:25:21;7.50;1.00
3208;DHT22;1616;52.394;9.756;2022-11-14T17:27:47;7.50;1.00
3208;DHT22;1616;52.394;9.756;2022-11-14T17:30:17;7.50;1.00
3208;DHT22;1616;52.394;9.756;2022-11-14T17:32:43;7.50;1.00
3208;DHT22;1616;52.394;9.756;2022-11-14T17:35:09;7.50;1.00
3208;DHT22;1616;52.394;9.756;2022-11-14T17:37:35;7.50;1.00
3208;DHT22;1616;52.394;9.756;2022-11-14T17:40:01;7.50;1.00
3208;DHT22;1616;52.394;9.756;2022-11-14T17:42:27;7.50;1.00
3208;DHT22;1616;52.394;9.756;2022-11-14T17:44:53;7.50;1.00
3208;DHT22;1616;52.394;9.756;2022-11-14T17:47:19;7.50;1.00
3208;DHT22;1616;52.394;9.756;2022-11-14T17:49:45;7.60;1.00
3208;DHT22;1616;52.394;9.756;2022-11-14T17:52:10;7.60;1.00
3208;DHT22;1616;52.394;9.756;2022-11-14T17:54:36;7.50;1.00
3208;DHT22;1616;52.394;9.756;2022-11-14T17:57:06;7.60;1.00
3208;DHT22;1616;52.394;9.756;2022-11-14T17:59:32;7.60;1.00
3208;DHT22;1616;52.394;9.756;2022-11-14T18:01:59;7.60;1.00
3208;DHT22;1616;52.394;9.756;2022-11-14T18:04:26;7.60;1.00
3208;DHT22;1616;52.394;9.756;2022-11-14T18:06:52;7.60;1.00
3208;DHT22;1616;52.394;9.756;2022-11-14T18:09:19;7.50;1.00
3208;DHT22;1616;52.394;9.756;2022-11-14T18:11:45;7.50;1.00
3208;DHT22;1616;52.394;9.756;2022-11-14T18:14:11;7.50;1.00
3208;DHT22;1616;52.394;9.756;2022-11-14T18:16:39;7.50;1.00
3208;DHT22;1616;52.394;9.756;2022-11-14T18:19:05;7.50;1.00
3208;DHT22;1616;52.394;9.756;2022-11-14T18:21:31;7.40;1.00
3208;DHT22;1616;52.394;9.756;2022-11-14T18:23:58;7.40;1.00
3208;DHT22;1616;52.394;9.756;2022-11-14T18:26:26;7.40;1.00
3208;DHT22;1616;52.394;9.756;2022-11-14T18:29:02;7.40;1.00
3208;DHT22;1616;52.394;9.756;2022-11-14T18:31:28;7.30;1.00
3208;DHT22;1616;52.394;9.756;2022-11-14T18:33:54;7.30;1.00